createdAt,value
2018-11-14T05:51:42.381Z,98.1
2018-11-14T05:52:54.171Z,98.6
2018-11-14T05:54:06.437Z,98.7
2018-11-14T05:55:18.798Z,99.2
2018-11-14T05:56:30.968Z,99.3
2018-11-14T05:57:43.324Z,99.3
2018-11-14T05:58:55.539Z,99.6
2018-11-14T06:00:07.803Z,100
2018-11-14T06:01:20.035Z,100
2018-11-14T06:02:32.273Z,100
2018-11-14T06:03:44.537Z,100
2018-11-14T06:04:56.773Z,100
2018-11-14T06:06:08.943Z,100
2018-11-14T06:07:21.286Z,100
2018-11-14T06:08:33.625Z,100
2018-11-14T06:10:58.022Z,100
2018-11-14T06:13:22.543Z,100
2018-11-14T06:14:34.710Z,100
2018-11-14T06:15:46.957Z,100
2018-11-14T06:16:59.295Z,100
2018-11-14T06:18:11.473Z,100
2018-11-14T06:19:23.713Z,100
2018-11-14T06:21:48.296Z,100
2018-11-14T06:23:00.548Z,100
2018-11-14T06:24:12.738Z,100
2018-11-14T06:27:49.545Z,100
2018-11-14T06:29:01.809Z,100
2018-11-14T06:31:26.330Z,100
2018-11-14T06:32:38.554Z,100
2018-11-14T06:33:50.819Z,100
2018-11-14T06:35:02.989Z,100
2018-11-14T06:36:15.319Z,100
2018-11-14T06:37:27.490Z,100
2018-11-14T06:38:39.836Z,100
2018-11-14T06:39:52.075Z,100
2018-11-14T06:41:04.284Z,100
2018-11-14T06:42:16.962Z,100
2018-11-14T06:43:28.828Z,100
2018-11-14T06:45:53.354Z,100
2018-11-14T06:47:05.597Z,100
2018-11-14T06:48:17.834Z,100
2018-11-14T06:49:30.099Z,100
2018-11-14T06:50:42.284Z,100
2018-11-14T06:51:54.588Z,100
2018-11-14T06:53:06.780Z,100
2018-11-14T06:54:19.056Z,100
2018-11-14T06:55:31.308Z,100
2018-11-14T06:56:43.610Z,100
2018-11-14T06:57:56.007Z,100
2018-11-14T06:59:08.114Z,100
2018-11-14T07:00:20.295Z,100
2018-11-14T07:01:32.614Z,100
2018-11-14T07:02:44.872Z,100
2018-11-14T07:03:57.041Z,100
2018-11-14T07:05:09.320Z,100
2018-11-14T07:06:21.630Z,100
2018-11-14T07:07:33.873Z,100
2018-11-14T07:09:58.414Z,100
2018-11-14T07:11:10.564Z,100
2018-11-14T07:12:22.861Z,100
2018-11-14T07:13:35.148Z,100
2018-11-14T07:14:47.425Z,100
2018-11-14T07:15:59.641Z,100
2018-11-14T07:17:11.904Z,100
2018-11-14T07:18:24.057Z,100
2018-11-14T07:19:36.400Z,100
2018-11-14T07:22:00.926Z,100
2018-11-14T07:23:13.244Z,100
2018-11-14T07:24:25.330Z,100
2018-11-14T07:25:37.687Z,100
2018-11-14T07:26:49.999Z,100
2018-11-14T07:28:02.602Z,100
2018-11-14T07:29:14.517Z,100
2018-11-14T07:30:26.811Z,100
2018-11-14T07:31:38.903Z,100
2018-11-14T07:32:51.088Z,100
2018-11-14T07:34:03.445Z,100
2018-11-14T07:35:15.604Z,100
2018-11-14T07:36:27.994Z,100
2018-11-14T07:37:40.203Z,100
2018-11-14T07:40:06.644Z,100
2018-11-14T07:41:16.946Z,100
2018-11-14T07:42:29.204Z,100
2018-11-14T07:43:41.444Z,100
2018-11-14T07:44:53.746Z,100
2018-11-14T07:46:05.941Z,100
2018-11-14T07:47:18.333Z,100
2018-11-14T07:48:30.375Z,100
2018-11-14T07:49:42.692Z,100
2018-11-14T07:50:54.887Z,99.9
2018-11-14T07:52:07.135Z,99.8
2018-11-14T07:53:19.393Z,100
2018-11-14T07:55:43.903Z,99.8
2018-11-14T07:58:08.442Z,99.4
2018-11-14T07:59:20.640Z,99.1
2018-11-14T08:01:45.236Z,98.9
2018-11-14T08:02:57.401Z,99.1
2018-11-14T08:04:09.740Z,99.2
2018-11-14T08:05:22.809Z,99.4
2018-11-14T08:06:34.217Z,99
2018-11-14T08:07:46.473Z,98.1
2018-11-14T08:08:58.661Z,97.8
2018-11-14T08:10:10.912Z,97.6
2018-11-14T08:11:23.156Z,97.4
2018-11-14T08:12:35.512Z,96.5
2018-11-14T08:13:47.744Z,96.4
2018-11-14T08:16:12.318Z,96
2018-11-14T08:17:24.428Z,95.8
2018-11-14T08:18:36.673Z,95.9
2018-11-14T08:19:49.008Z,95.9
2018-11-14T08:21:01.255Z,95.7
2018-11-14T08:22:13.530Z,95.7
2018-11-14T08:23:25.749Z,94.5
2018-11-14T08:24:38.052Z,95.2
2018-11-14T08:25:50.189Z,95.1
2018-11-14T08:27:02.506Z,93.8
2018-11-14T08:28:14.810Z,92.5
2018-11-14T08:29:26.953Z,90.9
2018-11-14T08:30:39.256Z,91.7
2018-11-14T08:31:52.073Z,91
2018-11-14T08:34:16.027Z,88.5
2018-11-14T08:35:28.288Z,89.1
2018-11-14T08:36:40.434Z,87.9
2018-11-14T08:37:52.742Z,87.4
2018-11-14T08:39:05.046Z,87.3
2018-11-14T08:40:17.270Z,87.3
2018-11-14T08:41:29.521Z,85.2
2018-11-14T08:42:41.690Z,84.9
2018-11-14T08:43:54.080Z,85.3
2018-11-14T08:45:06.305Z,83.8
2018-11-14T08:46:18.591Z,85.2
2018-11-14T08:47:30.773Z,84.7
2018-11-14T08:48:43.105Z,84.5
2018-11-14T08:49:55.303Z,83.9
2018-11-14T08:52:19.912Z,83.4
2018-11-14T08:53:32.038Z,83.2
2018-11-14T08:54:44.357Z,81
2018-11-14T08:55:56.585Z,80.8
2018-11-14T08:57:08.721Z,81.1
2018-11-14T08:58:21.036Z,79.7
2018-11-14T08:59:33.305Z,79.4
2018-11-14T09:00:45.477Z,78.8
2018-11-14T09:01:57.824Z,80.1
2018-11-14T09:03:10.057Z,78.4
2018-11-14T09:04:22.308Z,77.1
2018-11-14T09:05:34.557Z,76.2
2018-11-14T09:06:46.831Z,76.2
2018-11-14T09:07:59.066Z,75.5
2018-11-14T09:10:23.568Z,73.3
2018-11-14T09:11:35.770Z,73.5
2018-11-14T09:12:48.088Z,73.3
2018-11-14T09:14:00.326Z,72.2
2018-11-14T09:15:12.592Z,73.7
2018-11-14T09:16:24.857Z,73.5
2018-11-14T09:17:37.104Z,72.4
2018-11-14T09:18:50.236Z,74.7
2018-11-14T09:20:01.526Z,75.2
2018-11-14T09:21:13.850Z,75.2
2018-11-14T09:22:26.028Z,75.2
2018-11-14T09:23:38.364Z,75.5
2018-11-14T09:24:50.518Z,75.9
2018-11-14T09:26:02.855Z,76.7
2018-11-14T09:28:27.381Z,75.6
2018-11-14T09:29:39.849Z,75.8
2018-11-14T09:30:51.852Z,77.5
2018-11-14T09:32:04.077Z,77.4
2018-11-14T09:33:16.374Z,78.5
2018-11-14T09:34:28.607Z,76.6
2018-11-14T09:35:40.890Z,75.4
2018-11-14T09:36:53.111Z,74.7
2018-11-14T09:38:05.373Z,73.6
2018-11-14T09:39:17.540Z,74.2
2018-11-14T09:40:29.904Z,72.5
2018-11-14T09:41:42.042Z,72.2
2018-11-14T09:42:54.312Z,72.6
2018-11-14T09:44:06.640Z,72
2018-11-14T09:46:31.137Z,72.2
2018-11-14T09:47:43.399Z,73
2018-11-14T09:48:55.627Z,73
2018-11-14T09:50:07.841Z,72.2
2018-11-14T09:51:20.141Z,72.6
2018-11-14T09:52:32.389Z,73.8
2018-11-14T09:53:44.673Z,74.3
2018-11-14T09:54:56.838Z,73.4
2018-11-14T09:56:09.154Z,72.3
2018-11-14T09:57:21.389Z,71.4
2018-11-14T09:58:33.663Z,71.4
2018-11-14T09:59:45.824Z,72.2
2018-11-14T10:00:58.153Z,72.1
2018-11-14T10:02:10.407Z,71.3
2018-11-14T10:04:36.056Z,71.2
2018-11-14T10:05:47.127Z,71.1
2018-11-14T10:06:59.334Z,69.5
2018-11-14T10:08:11.665Z,68.5
2018-11-14T10:09:23.883Z,69.4
2018-11-14T10:10:36.212Z,70.4
2018-11-14T10:11:48.363Z,70.1
2018-11-14T10:13:00.674Z,68.2
2018-11-14T10:14:12.956Z,65
2018-11-14T10:15:25.207Z,62.6
2018-11-14T10:16:37.579Z,62.1
2018-11-14T10:17:49.627Z,61.3
2018-11-14T10:20:14.227Z,62.8
2018-11-14T10:22:38.700Z,60.7
2018-11-14T10:23:50.947Z,60.3
2018-11-14T10:25:03.625Z,59.2
2018-11-14T10:26:15.555Z,57.6
2018-11-14T10:27:27.625Z,56
2018-11-14T10:28:39.966Z,55.6
2018-11-14T10:29:52.208Z,59.8
2018-11-14T10:31:04.485Z,59.4
2018-11-14T10:32:16.744Z,60.4
2018-11-14T10:33:29.032Z,60.3
2018-11-14T10:34:41.143Z,58
2018-11-14T10:35:53.483Z,57
2018-11-14T10:37:05.752Z,55.7
2018-11-14T10:38:17.991Z,56.2
2018-11-14T10:40:42.395Z,58.7
2018-11-14T10:41:54.740Z,57.5
2018-11-14T10:43:06.913Z,56.5
2018-11-14T10:44:19.155Z,55.5
2018-11-14T10:45:31.484Z,55.6
2018-11-14T10:46:44.159Z,55.8
2018-11-14T10:47:55.997Z,53.5
2018-11-14T10:49:08.235Z,56.4
2018-11-14T10:50:20.435Z,55.6
2018-11-14T10:51:32.751Z,55.7
2018-11-14T10:52:44.988Z,54.5
2018-11-14T10:53:57.332Z,56.9
2018-11-14T10:55:09.495Z,58.3
2018-11-14T10:56:21.680Z,58
2018-11-14T10:58:46.179Z,58.7
2018-11-14T10:59:58.539Z,57.9
2018-11-14T11:01:10.760Z,56.2
2018-11-14T11:02:23.004Z,56.9
2018-11-14T11:03:35.187Z,57.1
2018-11-14T11:04:47.452Z,57.7
2018-11-14T11:05:59.792Z,59.6
2018-11-14T11:07:11.944Z,60.1
2018-11-14T11:08:24.274Z,62.9
2018-11-14T11:09:36.453Z,65.6
2018-11-14T11:10:48.827Z,66.2
2018-11-14T11:12:01.031Z,67.1
2018-11-14T11:13:13.328Z,68
2018-11-14T11:14:25.523Z,67.6
2018-11-14T11:16:50.067Z,68
2018-11-14T11:18:02.217Z,68.7
2018-11-14T11:19:14.490Z,69.1
2018-11-14T11:20:28.718Z,69
2018-11-14T11:21:39.043Z,67.4
2018-11-14T11:22:51.307Z,65.7
2018-11-14T11:24:06.072Z,66.3
2018-11-14T11:25:15.732Z,66
2018-11-14T11:26:29.366Z,65.6
2018-11-14T11:27:40.318Z,64.3
2018-11-14T11:28:52.594Z,62.3
2018-11-14T11:30:04.837Z,62.9
2018-11-14T11:31:17.067Z,64.6
2018-11-14T11:32:29.317Z,66.4
2018-11-14T11:34:53.819Z,67.6
2018-11-14T11:36:06.077Z,67.8
2018-11-14T11:37:18.367Z,68.1
2018-11-14T11:38:30.520Z,67.4
2018-11-14T11:39:42.834Z,64.5
2018-11-14T11:40:55.080Z,64.3
2018-11-14T11:42:07.397Z,65.8
2018-11-14T11:43:19.579Z,64.6
2018-11-14T11:44:31.840Z,63.5
2018-11-14T11:45:44.100Z,62
2018-11-14T11:46:56.264Z,61.6
2018-11-14T11:48:08.603Z,62.6
2018-11-14T11:49:20.939Z,62
2018-11-14T11:50:33.101Z,63.5
2018-11-14T11:52:57.597Z,61.8
2018-11-14T11:54:09.866Z,62.8
2018-11-14T11:55:22.104Z,62.1
2018-11-14T11:56:34.373Z,58.4
2018-11-14T11:57:46.608Z,58.2
2018-11-14T11:58:58.846Z,58.9
2018-11-14T12:00:11.124Z,57.3
2018-11-14T12:01:23.363Z,56
2018-11-14T12:02:35.640Z,55.7
2018-11-14T12:03:47.893Z,56.8
2018-11-14T12:05:00.121Z,56.2
2018-11-14T12:06:12.317Z,55
2018-11-14T12:07:24.711Z,54.3
2018-11-14T12:08:36.951Z,53.3
2018-11-14T12:11:01.418Z,52.3
2018-11-14T12:12:13.677Z,53.6
2018-11-14T12:13:25.903Z,53.7
2018-11-14T12:14:38.141Z,52.4
2018-11-14T12:15:50.399Z,51.6
2018-11-14T12:17:02.640Z,51.5
2018-11-14T12:18:14.906Z,52.7
2018-11-14T12:19:27.194Z,52.1
2018-11-14T12:20:39.412Z,51.7
2018-11-14T12:21:51.650Z,50.7
2018-11-14T12:23:03.912Z,52.5
2018-11-14T12:24:16.163Z,53.7
2018-11-14T12:25:28.446Z,52.7
2018-11-14T12:26:40.672Z,52.5
2018-11-14T12:29:05.189Z,50.7
2018-11-14T12:30:17.428Z,50.9
2018-11-14T12:31:29.592Z,50.6
2018-11-14T12:32:41.910Z,49.7
2018-11-14T12:33:54.178Z,51.1
2018-11-14T12:35:06.428Z,50.9
2018-11-14T12:36:18.606Z,49.6
2018-11-14T12:37:30.875Z,49.2
2018-11-14T12:38:43.179Z,48.7
2018-11-14T12:39:55.428Z,49.7
2018-11-14T12:41:07.704Z,49.4
2018-11-14T12:42:19.958Z,50.1
2018-11-14T12:43:32.188Z,51.3
2018-11-14T12:44:44.443Z,51.3
2018-11-14T12:47:08.937Z,51
2018-11-14T12:48:21.196Z,49.5
2018-11-14T12:49:33.758Z,49.3
2018-11-14T12:50:45.729Z,49.2
2018-11-14T12:51:57.971Z,48.4
2018-11-14T12:53:10.209Z,48.9
2018-11-14T12:54:22.456Z,48.4
2018-11-14T12:55:35.288Z,49.2
2018-11-14T12:56:46.986Z,49.1
2018-11-14T12:57:59.235Z,49.2
2018-11-14T12:59:11.500Z,49.6
2018-11-14T13:00:23.729Z,49.5
2018-11-14T13:01:35.978Z,48.7
2018-11-14T13:02:48.165Z,49.6
2018-11-14T13:05:12.739Z,49.5
2018-11-14T13:06:24.973Z,50.3
2018-11-14T13:07:37.225Z,51.3
2018-11-14T13:08:49.490Z,49.8
2018-11-14T13:10:01.740Z,49.8
2018-11-14T13:11:14.002Z,49.1
2018-11-14T13:12:26.246Z,49.6
2018-11-14T13:13:38.513Z,51
2018-11-14T13:14:50.750Z,50.4
2018-11-14T13:16:02.926Z,51.4
2018-11-14T13:17:15.362Z,53.2
2018-11-14T13:18:27.520Z,52.5
2018-11-14T13:19:39.747Z,51.1
2018-11-14T13:20:51.969Z,49.7
2018-11-14T13:22:04.255Z,48.9
2018-11-14T13:23:16.504Z,49
2018-11-14T13:24:28.777Z,49.5
2018-11-14T13:25:41.019Z,50
2018-11-14T13:26:53.275Z,52.7
2018-11-14T13:28:05.450Z,55
2018-11-14T13:29:17.815Z,55.9
2018-11-14T13:30:30.029Z,55.9
2018-11-14T13:31:42.361Z,54.2
2018-11-14T13:32:54.525Z,53.3
2018-11-14T13:34:06.709Z,53.4
2018-11-14T13:35:19.063Z,52.6
2018-11-14T13:36:31.208Z,52.9
2018-11-14T13:37:43.653Z,51.5
2018-11-14T13:38:55.713Z,51.6
2018-11-14T13:41:20.307Z,52.1
2018-11-14T13:42:32.556Z,52.7
2018-11-14T13:43:44.788Z,52
2018-11-14T13:44:57.087Z,51.8
2018-11-14T13:46:09.322Z,51.6
2018-11-14T13:47:21.476Z,51.9
2018-11-14T13:48:33.831Z,51.5
2018-11-14T13:49:45.987Z,51.9
2018-11-14T13:50:58.272Z,52.4
2018-11-14T13:52:10.556Z,51.3
2018-11-14T13:53:23.458Z,52.1
2018-11-14T13:54:35.021Z,52.7
2018-11-14T13:55:47.332Z,53.7
2018-11-14T13:56:59.581Z,55.5
2018-11-14T13:58:11.840Z,57
2018-11-14T13:59:24.080Z,57.6
2018-11-14T14:00:36.321Z,59.7
2018-11-14T14:01:48.586Z,60.7
2018-11-14T14:03:00.885Z,61.6
2018-11-14T14:04:13.089Z,62.7
2018-11-14T14:05:25.345Z,62.1
2018-11-14T14:06:37.592Z,62.7
2018-11-14T14:07:49.935Z,61.7
2018-11-14T14:09:02.099Z,62.6
2018-11-14T14:10:14.273Z,62.7
2018-11-14T14:11:26.597Z,62.8
2018-11-14T14:12:38.915Z,63.7
2018-11-14T14:13:51.205Z,64.5
2018-11-14T14:15:03.289Z,63.9
2018-11-14T14:17:27.865Z,63.8
2018-11-14T14:21:04.636Z,64.4
2018-11-14T14:22:16.880Z,64.1
2018-11-14T14:23:29.124Z,64.6
2018-11-14T14:24:41.434Z,65
2018-11-14T14:25:53.657Z,64.5
2018-11-14T14:27:07.683Z,64.2
2018-11-14T14:28:18.151Z,64.3
2018-11-14T14:29:30.389Z,64.4
2018-11-14T14:30:42.631Z,64.6
2018-11-14T14:31:54.890Z,64.2
2018-11-14T14:33:07.149Z,64.6
2018-11-14T14:35:31.656Z,65.1
2018-11-14T14:36:43.860Z,64.4
2018-11-14T14:37:56.225Z,66.5
2018-11-14T14:39:08.418Z,66.2
2018-11-14T14:40:20.667Z,65.5
2018-11-14T14:41:32.920Z,66.9
2018-11-14T14:42:45.165Z,65.8
2018-11-14T14:43:57.504Z,66.3
2018-11-14T14:45:09.635Z,66.7
2018-11-14T14:46:21.847Z,66.8
2018-11-14T14:47:34.164Z,66.8
2018-11-14T14:48:46.416Z,66.1
2018-11-14T14:51:10.926Z,67.5
2018-11-14T14:53:35.446Z,68.3
2018-11-14T14:54:47.693Z,69
2018-11-14T14:55:59.858Z,68.3
2018-11-14T14:57:12.162Z,68.4
2018-11-14T14:58:24.435Z,68.9
2018-11-14T14:59:36.743Z,68.2
2018-11-14T15:00:48.934Z,68.5
2018-11-14T15:02:01.216Z,68.6
2018-11-14T15:03:13.596Z,69.2
2018-11-14T15:04:25.692Z,69.3
2018-11-14T15:05:37.944Z,70.7
2018-11-14T15:06:50.212Z,70.2
2018-11-14T15:08:02.466Z,71
2018-11-14T15:09:14.735Z,71.2
2018-11-14T15:11:39.356Z,71.3
2018-11-14T15:12:51.476Z,70.6
2018-11-14T15:14:03.744Z,72.3
2018-11-14T15:15:15.999Z,72
2018-11-14T15:16:28.234Z,73.2
2018-11-14T15:17:40.545Z,74.9
2018-11-14T15:18:52.652Z,73.4
2018-11-14T15:20:05.017Z,73.6
2018-11-14T15:21:17.226Z,74.6
2018-11-14T15:22:29.512Z,74.7
2018-11-14T15:23:41.735Z,75.2
2018-11-14T15:24:53.988Z,74.9
2018-11-14T15:26:06.241Z,75.1
2018-11-14T15:27:18.485Z,75
2018-11-14T15:29:42.991Z,75.5
2018-11-14T15:30:55.192Z,75.8
2018-11-14T15:32:07.518Z,75.8
2018-11-14T15:33:19.752Z,76.4
2018-11-14T15:34:31.916Z,76.8
2018-11-14T15:35:44.158Z,76.8
2018-11-14T15:36:56.490Z,76.4
2018-11-14T15:38:08.743Z,75.7
2018-11-14T15:39:21.018Z,76.2
2018-11-14T15:40:33.232Z,75.5
2018-11-14T15:41:45.499Z,76.5
2018-11-14T15:42:57.736Z,76.6
2018-11-14T15:44:09.992Z,77.2
2018-11-14T15:45:22.262Z,77.7
2018-11-14T15:47:46.737Z,77.8
2018-11-14T15:48:58.995Z,78.8
2018-11-14T15:50:11.255Z,79
2018-11-14T15:51:23.533Z,80.2
2018-11-14T15:52:35.757Z,79.7
2018-11-14T15:53:48.013Z,80.2
2018-11-14T15:55:00.227Z,81
2018-11-14T15:56:12.551Z,81
2018-11-14T15:57:24.719Z,81
2018-11-14T15:58:37.055Z,81.4
2018-11-14T15:59:49.236Z,81.3
2018-11-14T16:01:01.429Z,81.7
2018-11-14T16:02:13.706Z,81.9
2018-11-14T16:03:25.982Z,82.3
2018-11-14T16:05:51.181Z,82.6
2018-11-14T16:07:02.657Z,82.4
2018-11-14T16:08:14.978Z,82.6
2018-11-14T16:09:27.304Z,82.2
2018-11-14T16:10:39.509Z,82.4
2018-11-14T16:11:51.781Z,82.6
2018-11-14T16:13:03.944Z,83
2018-11-14T16:14:16.160Z,83.7
2018-11-14T16:15:28.436Z,83.7
2018-11-14T16:16:40.658Z,84
2018-11-14T16:17:53.058Z,84.6
